Time;durP1;ratioP1;P1;durP2;ratioP2;P2;SDS_P1;SDS_P2;PMS_P1;PMS_P2;Temp;Humidity;BMP_temperature;BMP_pressure;BME280_temperature;BME280_humidity;BME280_pressure;Samples;Min_cycle;Max_cycle;Signal;HPM_P1;HPM_P2
2022/04/08 00:00:16;;;;;;;9.77;2.70;;;7.60;99.90;;;;;;4951347;28;20454;-86
2022/04/08 00:03:03;;;;;;;10.80;2.35;;;7.60;99.90;;;;;;4973264;28;20107;-85
2022/04/08 00:05:57;;;;;;;12.18;2.55;;;7.60;1.00;;;;;;4973246;28;20448;-85
2022/04/08 00:08:45;;;;;;;7.38;2.55;;;7.60;1.00;;;;;;4971055;28;20055;-82
2022/04/08 00:11:35;;;;;;;10.02;2.20;;;7.60;1.00;;;;;;4963185;28;20051;-86
2022/04/08 00:14:24;;;;;;;11.57;2.50;;;7.60;99.90;;;;;;4972413;28;20129;-86
2022/04/08 00:17:11;;;;;;;8.73;2.25;;;7.60;1.00;;;;;;4972295;28;20082;-84
2022/04/08 00:20:01;;;;;;;8.02;2.00;;;7.50;1.00;;;;;;4964097;28;20066;-85
2022/04/08 00:22:48;;;;;;;8.48;2.05;;;7.50;99.90;;;;;;4969174;28;20079;-84
2022/04/08 00:25:36;;;;;;;11.15;2.63;;;7.50;99.90;;;;;;4976993;28;20098;-85
2022/04/08 00:28:23;;;;;;;12.48;3.05;;;7.50;99.90;;;;;;4968809;28;20133;-85
2022/04/08 00:31:10;;;;;;;10.43;2.17;;;7.50;99.90;;;;;;4967286;28;20095;-84
2022/04/08 00:33:58;;;;;;;11.77;2.47;;;7.50;99.90;;;;;;4950559;28;20148;-84
2022/04/08 00:36:45;;;;;;;6.38;1.95;;;7.50;99.90;;;;;;4965916;28;20046;-87
2022/04/08 00:39:32;;;;;;;13.88;2.00;;;7.50;99.90;;;;;;4952289;28;20162;-86
2022/04/08 00:42:19;;;;;;;9.75;2.00;;;7.40;99.90;;;;;;4963490;28;20051;-85
2022/04/08 00:45:14;;;;;;;9.73;1.92;;;7.40;99.90;;;;;;4958885;28;20051;-84
2022/04/08 00:48:06;;;;;;;10.30;2.10;;;7.40;99.90;;;;;;4970869;28;20098;-85
2022/04/08 00:50:56;;;;;;;7.72;2.17;;;7.40;99.90;;;;;;4977127;28;20447;-83
2022/04/08 00:53:45;;;;;;;12.75;1.85;;;7.30;99.90;;;;;;4977231;28;20078;-85
2022/04/08 00:56:49;;;;;;;8.85;2.03;;;7.40;99.90;;;;;;4986517;23;20062;-85
2022/04/08 01:00:07;;;;;;;8.70;2.42;;;7.30;99.90;;;;;;4949015;28;20062;-84
2022/04/08 01:03:02;;;;;;;13.93;2.17;;;7.30;99.90;;;;;;4959048;28;20141;-85
2022/04/08 01:06:10;;;;;;;6.88;1.92;;;7.30;99.90;;;;;;4969304;28;20043;-84
2022/04/08 01:08:57;;;;;;;7.38;2.15;;;7.20;99.90;;;;;;4983565;28;20043;-85
2022/04/08 01:11:56;;;;;;;11.02;2.22;;;7.20;99.90;;;;;;4957107;28;20057;-85
2022/04/08 01:15:27;;;;;;;6.30;1.92;;;7.20;99.90;;;;;;4971793;28;20149;-85
2022/04/08 01:18:26;;;;;;;8.23;2.05;;;7.20;99.90;;;;;;4965354;28;20058;-84
2022/04/08 01:21:13;;;;;;;10.10;1.75;;;7.20;99.90;;;;;;4963638;28;20106;-85
2022/04/08 01:24:09;;;;;;;6.68;1.60;;;7.20;1.00;;;;;;4972666;28;20039;-84
2022/04/08 01:26:59;;;;;;;9.20;1.42;;;7.10;1.00;;;;;;4972477;28;20125;-83
2022/04/08 01:29:47;;;;;;;8.93;2.20;;;7.20;99.90;;;;;;4974029;28;20054;-86
2022/04/08 01:33:01;;;;;;;11.75;1.60;;;7.30;99.90;;;;;;4961276;28;20111;-84
2022/04/08 01:36:39;;;;;;;5.88;2.10;;;7.30;99.90;;;;;;4970226;28;20424;-84
2022/04/08 01:39:29;;;;;;;3.53;1.40;;;7.30;28.60;;;;;;4973331;28;20058;-83
2022/04/08 01:42:40;;;;;;;4.90;1.60;;;7.30;1.00;;;;;;4974774;28;20059;-83
2022/04/08 01:45:30;;;;;;;7.65;1.58;;;7.30;1.00;;;;;;4952288;28;20506;-85
2022/04/08 01:48:17;;;;;;;3.42;1.48;;;7.30;1.00;;;;;;4960553;28;20117;-85
2022/04/08 01:51:16;;;;;;;4.10;1.83;;;7.30;1.00;;;;;;4960698;28;20047;-87
2022/04/08 01:54:03;;;;;;;4.30;1.70;;;7.20;1.00;;;;;;4973163;28;20065;-83
2022/04/08 01:56:59;;;;;;;8.23;1.80;;;7.20;1.00;;;;;;4965525;28;20396;-83
2022/04/08 01:59:47;;;;;;;7.53;1.65;;;7.20;1.00;;;;;;4955076;28;20058;-85
2022/04/08 02:02:43;;;;;;;7.13;1.85;;;7.20;34.60;;;;;;4975356;28;20188;-86
2022/04/08 02:05:32;;;;;;;8.73;2.10;;;7.10;32.50;;;;;;4974810;28;20451;-85
2022/04/08 02:08:19;;;;;;;6.03;1.70;;;7.10;68.10;;;;;;4969213;28;20043;-86
2022/04/08 02:11:06;;;;;;;8.55;2.10;;;7.10;70.50;;;;;;4973304;28;20130;-83
2022/04/08 02:13:56;;;;;;;5.93;1.40;;;7.10;78.50;;;;;;4974973;28;20057;-84
2022/04/08 02:16:52;;;;;;;10.88;1.63;;;7.00;99.90;;;;;;4965356;28;20050;-85
2022/04/08 02:19:39;;;;;;;8.18;2.28;;;7.00;99.90;;;;;;4972670;28;20052;-83
2022/04/08 02:22:29;;;;;;;12.50;1.85;;;7.00;99.90;;;;;;4961806;28;20051;-84
2022/04/08 02:25:22;;;;;;;11.05;2.20;;;6.90;99.90;;;;;;4973761;28;20079;-84
2022/04/08 02:28:09;;;;;;;11.52;1.92;;;6.90;99.90;;;;;;4973493;28;20512;-84
2022/04/08 02:31:13;;;;;;;7.93;2.22;;;6.90;99.90;;;;;;4970615;28;20697;-85
2022/04/08 02:34:00;;;;;;;4.50;1.70;;;6.90;99.90;;;;;;4965137;28;20162;-84
2022/04/08 02:36:47;;;;;;;5.20;1.42;;;7.00;99.90;;;;;;4973570;28;20475;-85
2022/04/08 02:39:35;;;;;;;7.60;1.83;;;6.90;99.90;;;;;;4972997;28;20342;-85
2022/04/08 02:42:31;;;;;;;7.28;1.80;;;6.90;99.90;;;;;;4957775;28;20185;-84
2022/04/08 02:45:27;;;;;;;4.18;1.75;;;6.80;99.90;;;;;;4963337;28;20078;-83
2022/04/08 02:48:14;;;;;;;8.60;2.05;;;6.80;99.90;;;;;;4962485;28;20150;-85
2022/04/08 02:51:01;;;;;;;8.45;1.80;;;6.80;99.90;;;;;;4955881;28;20512;-83
2022/04/08 02:53:51;;;;;;;7.88;1.90;;;6.80;89.20;;;;;;4966305;28;20045;-84
2022/04/08 02:56:50;;;;;;;8.10;2.03;;;6.80;34.70;;;;;;4968602;28;20065;-83
2022/04/08 02:59:53;;;;;;;10.02;1.65;;;6.80;1.00;;;;;;4972956;28;20039;-84
2022/04/08 03:03:00;;;;;;;5.80;1.67;;;6.80;1.00;;;;;;4978651;28;20571;-85
2022/04/08 03:05:47;;;;;;;7.45;1.65;;;6.80;1.00;;;;;;4975661;28;20046;-85
2022/04/08 03:08:34;;;;;;;7.50;1.90;;;6.80;1.00;;;;;;4959443;28;20053;-85
2022/04/08 03:11:22;;;;;;;11.75;2.00;;;6.70;1.00;;;;;;4957360;28;20511;-85
2022/04/08 03:14:09;;;;;;;11.02;2.00;;;6.70;1.00;;;;;;4973653;28;20350;-85
2022/04/08 03:16:57;;;;;;;8.68;1.90;;;6.60;99.90;;;;;;4969912;28;20909;-86
2022/04/08 03:20:00;;;;;;;8.40;1.63;;;6.50;1.00;;;;;;4968842;28;20066;-85
2022/04/08 03:22:50;;;;;;;10.50;1.88;;;6.50;1.00;;;;;;4970856;28;20174;-84
2022/04/08 03:25:37;;;;;;;9.43;2.08;;;6.40;1.00;;;;;;4957248;28;20405;-83
2022/04/08 03:28:27;;;;;;;9.80;2.33;;;6.40;1.00;;;;;;4975607;28;20058;-84
2022/04/08 03:31:14;;;;;;;9.52;1.80;;;6.40;1.00;;;;;;4955992;28;20130;-84
2022/04/08 03:34:03;;;;;;;6.43;2.33;;;6.40;1.00;;;;;;4949416;28;20078;-84
2022/04/08 03:36:50;;;;;;;6.28;1.98;;;6.40;1.00;;;;;;4969212;28;20510;-85
2022/04/08 03:39:38;;;;;;;5.80;1.83;;;6.40;99.90;;;;;;4958522;28;20165;-85
2022/04/08 03:42:34;;;;;;;8.05;2.03;;;6.40;1.00;;;;;;4957417;28;20070;-84
2022/04/08 03:45:22;;;;;;;9.77;2.22;;;6.40;99.90;;;;;;4963227;28;20043;-85
2022/04/08 03:48:13;;;;;;;5.10;1.85;;;6.40;99.90;;;;;;4965208;28;20046;-82
2022/04/08 03:51:00;;;;;;;6.82;1.70;;;6.30;99.90;;;;;;4971759;28;20039;-83
2022/04/08 03:53:47;;;;;;;10.55;2.30;;;6.40;99.90;;;;;;4958271;28;20046;-83
2022/04/08 03:56:37;;;;;;;6.53;2.35;;;6.40;99.90;;;;;;4973723;28;20078;-84
2022/04/08 03:59:26;;;;;;;5.10;1.88;;;6.40;99.90;;;;;;4957666;28;20483;-84
2022/04/08 04:02:14;;;;;;;5.88;2.00;;;6.30;99.90;;;;;;4975670;28;20062;-84
2022/04/08 04:05:04;;;;;;;9.40;1.90;;;6.30;99.90;;;;;;4973765;28;20039;-84
2022/04/08 04:07:54;;;;;;;6.18;1.92;;;6.30;1.00;;;;;;4954505;28;20148;-84
2022/04/08 04:10:41;;;;;;;4.18;1.60;;;6.30;1.00;;;;;;4956359;28;20091;-84
2022/04/08 04:13:31;;;;;;;5.90;1.90;;;6.30;99.90;;;;;;4956830;28;20464;-84
2022/04/08 04:16:26;;;;;;;11.43;1.92;;;6.30;99.90;;;;;;4954295;28;20055;-85
2022/04/08 04:19:13;;;;;;;7.70;2.28;;;6.30;99.90;;;;;;4956755;28;20057;-85
2022/04/08 04:22:00;;;;;;;9.05;1.85;;;6.30;99.90;;;;;;4976474;28;20142;-84
2022/04/08 04:24:48;;;;;;;7.32;1.90;;;6.30;1.00;;;;;;4974526;28;20161;-85
2022/04/08 04:27:44;;;;;;;8.30;1.85;;;6.30;99.90;;;;;;4972440;28;20130;-84
2022/04/08 04:30:33;;;;;;;5.25;1.83;;;6.30;99.90;;;;;;4973070;28;20401;-85
2022/04/08 04:33:30;;;;;;;10.38;1.90;;;6.30;1.00;;;;;;4959458;28;20128;-83
2022/04/08 04:53:15;;;;;;;5.53;1.92;;;6.20;1.00;;;;;;4925851;28;20688;-86
2022/04/08 04:56:02;;;;;;;5.45;1.77;;;6.30;1.00;;;;;;4965197;28;20054;-87
2022/04/08 05:11:40;;;;;;;7.85;2.05;;;6.20;1.00;;;;;;4901928;29;20143;-87
2022/04/08 05:14:32;;;;;;;7.82;2.30;;;6.20;1.00;;;;;;4904378;29;20048;-87
2022/04/08 05:17:21;;;;;;;16.33;3.05;;;6.20;35.60;;;;;;4935167;28;20051;-86
2022/04/08 05:20:09;;;;;;;5.70;2.08;;;6.20;57.10;;;;;;4967427;28;20066;-82
2022/04/08 05:22:56;;;;;;;8.15;2.50;;;6.20;87.70;;;;;;4977830;28;20038;-83
2022/04/08 05:25:43;;;;;;;10.15;2.28;;;6.20;99.90;;;;;;4967738;28;20201;-81
2022/04/08 05:28:30;;;;;;;5.70;2.13;;;6.20;99.90;;;;;;4973949;28;20105;-82
2022/04/08 05:31:20;;;;;;;13.68;2.88;;;6.20;99.90;;;;;;4961557;28;20384;-82
2022/04/08 05:34:10;;;;;;;8.05;2.08;;;6.20;99.90;;;;;;4963320;28;20095;-82
2022/04/08 05:36:57;;;;;;;8.35;2.22;;;6.20;99.90;;;;;;4961302;28;20125;-81
2022/04/08 05:39:53;;;;;;;10.18;2.35;;;6.20;1.00;;;;;;4970805;28;20047;-82
2022/04/08 05:42:45;;;;;;;7.55;2.35;;;6.20;99.90;;;;;;4950948;28;20043;-86
2022/04/08 05:45:42;;;;;;;8.97;2.10;;;6.10;1.00;;;;;;4970507;28;20146;-86
2022/04/08 05:48:37;;;;;;;7.85;2.20;;;6.10;99.90;;;;;;4973433;28;20577;-87
2022/04/08 05:51:24;;;;;;;5.90;1.80;;;6.10;99.90;;;;;;4969574;28;20047;-88
2022/04/08 05:54:28;;;;;;;9.13;2.00;;;6.00;1.00;;;;;;4972554;28;20050;-90
2022/04/08 05:57:22;;;;;;;8.27;2.10;;;6.00;1.00;;;;;;4973271;28;20100;-88
2022/04/08 06:00:12;;;;;;;7.07;1.95;;;6.00;73.10;;;;;;4961561;28;20043;-87
2022/04/08 06:02:59;;;;;;;6.07;1.92;;;5.90;99.90;;;;;;4990237;28;20047;-87
2022/04/08 06:05:46;;;;;;;5.75;2.38;;;5.90;99.90;;;;;;4998006;28;20031;-85
2022/04/08 06:08:34;;;;;;;6.85;1.65;;;5.80;99.90;;;;;;4997351;28;20058;-85
2022/04/08 06:11:21;;;;;;;4.18;1.58;;;5.70;99.90;;;;;;4969662;28;20051;-88
2022/04/08 06:14:17;;;;;;;7.40;1.95;;;5.70;1.00;;;;;;4972743;28;20113;-88
2022/04/08 06:17:04;;;;;;;8.82;2.78;;;5.70;1.00;;;;;;4973836;28;20101;-89
2022/04/08 06:19:57;;;;;;;7.95;2.00;;;5.60;1.00;;;;;;4973420;28;20424;-87
2022/04/08 06:22:46;;;;;;;3.92;1.58;;;5.50;1.00;;;;;;4970005;28;20061;-87
2022/04/08 06:25:36;;;;;;;12.43;2.22;;;5.40;1.00;;;;;;4960653;28;20057;-88
2022/04/08 06:28:23;;;;;;;8.48;2.40;;;5.40;1.00;;;;;;4973677;28;20043;-88
2022/04/08 06:31:11;;;;;;;19.15;3.28;;;5.30;1.00;;;;;;4974349;28;20077;-89
2022/04/08 06:34:04;;;;;;;6.28;1.90;;;5.30;1.00;;;;;;4968258;28;20061;-89
2022/04/08 06:36:51;;;;;;;6.38;2.28;;;5.30;3.70;;;;;;4970490;28;20452;-89
2022/04/08 06:39:40;;;;;;;4.50;2.15;;;5.30;4.00;;;;;;4970786;28;20043;-90
2022/04/08 06:42:30;;;;;;;6.85;1.90;;;5.20;27.00;;;;;;4958091;28;20054;-88
2022/04/08 06:45:19;;;;;;;5.75;1.75;;;5.20;46.70;;;;;;4965262;28;20141;-89
2022/04/08 06:48:09;;;;;;;5.05;1.70;;;5.10;50.80;;;;;;4968012;28;20053;-89
2022/04/08 06:50:58;;;;;;;7.18;2.30;;;5.10;59.60;;;;;;4969545;28;20489;-91
2022/04/08 06:53:47;;;;;;;7.20;2.28;;;5.10;56.80;;;;;;4956776;28;20047;-90
2022/04/08 06:56:35;;;;;;;6.13;1.90;;;5.00;74.50;;;;;;4972110;28;20436;-89
2022/04/08 06:59:25;;;;;;;7.97;2.25;;;5.00;67.20;;;;;;4972050;28;20189;-90
2022/04/08 07:02:15;;;;;;;6.85;2.38;;;5.00;67.70;;;;;;4956599;28;20046;-85
2022/04/08 07:05:05;;;;;;;13.07;2.90;;;5.00;65.10;;;;;;4958404;28;20047;-90
2022/04/08 07:07:53;;;;;;;6.13;2.28;;;5.00;77.60;;;;;;4957081;28;20043;-88
2022/04/08 07:10:43;;;;;;;8.98;1.77;;;5.00;72.00;;;;;;4958590;28;20372;-91
2022/04/08 07:13:30;;;;;;;4.80;2.00;;;5.00;79.10;;;;;;4957490;28;20137;-88
2022/04/08 07:16:20;;;;;;;7.32;1.88;;;5.00;58.30;;;;;;4967362;28;20049;-86
2022/04/08 07:19:10;;;;;;;5.57;1.73;;;5.00;80.40;;;;;;4974138;28;20043;-89
2022/04/08 07:21:58;;;;;;;5.43;1.67;;;4.90;83.70;;;;;;4976917;28;20130;-86
2022/04/08 07:24:51;;;;;;;5.75;1.70;;;5.00;58.50;;;;;;4975761;28;20078;-87
2022/04/08 07:27:46;;;;;;;6.47;2.25;;;4.90;78.20;;;;;;4971854;28;20069;-88
2022/04/08 07:30:34;;;;;;;5.22;2.30;;;5.00;90.70;;;;;;4971834;28;20073;-86
2022/04/08 07:33:21;;;;;;;6.85;2.40;;;5.00;98.50;;;;;;4964094;28;21203;-88
2022/04/08 07:36:11;;;;;;;13.07;2.30;;;5.00;99.90;;;;;;4984629;28;20059;-87
2022/04/08 07:39:03;;;;;;;9.88;1.88;;;5.00;99.80;;;;;;4972280;28;20051;-87
2022/04/08 07:41:54;;;;;;;5.40;1.73;;;5.00;87.50;;;;;;4958446;28;20088;-88
2022/04/08 07:44:43;;;;;;;4.85;2.08;;;4.90;92.80;;;;;;4975936;28;20058;-89
2022/04/08 07:47:31;;;;;;;2.47;1.45;;;4.90;94.60;;;;;;4972459;28;20043;-84
2022/04/08 07:50:19;;;;;;;6.22;1.67;;;5.00;91.50;;;;;;4974722;28;20047;-86
2022/04/08 07:53:07;;;;;;;3.28;1.55;;;5.00;92.50;;;;;;4978159;28;20047;-88
2022/04/08 07:55:55;;;;;;;2.42;1.50;;;5.00;93.40;;;;;;4972203;28;20074;-85
2022/04/08 07:58:45;;;;;;;6.22;2.40;;;5.20;99.90;;;;;;4976423;28;20046;-89
2022/04/08 08:01:33;;;;;;;5.28;2.63;;;5.30;99.90;;;;;;4965603;28;20046;-86
2022/04/08 08:04:30;;;;;;;5.05;1.50;;;5.50;96.90;;;;;;4957953;28;20441;-87
2022/04/08 08:07:26;;;;;;;4.63;1.25;;;5.40;81.20;;;;;;4971546;28;20057;-86
2022/04/08 08:10:30;;;;;;;5.72;1.60;;;5.30;90.70;;;;;;4967472;28;20053;-86
2022/04/08 08:13:20;;;;;;;3.55;1.40;;;5.30;97.90;;;;;;4979858;28;20074;-84
2022/04/08 08:16:09;;;;;;;4.85;1.67;;;5.30;90.30;;;;;;4974145;28;20151;-86
2022/04/08 08:19:02;;;;;;;3.03;1.58;;;5.40;98.90;;;;;;4975771;28;21615;-86
2022/04/08 08:22:06;;;;;;;4.97;1.85;;;5.40;95.00;;;;;;4975316;28;20145;-85
2022/04/08 08:24:59;;;;;;;4.97;1.60;;;5.40;99.90;;;;;;4973644;28;20057;-82
2022/04/08 08:27:48;;;;;;;3.40;1.77;;;5.50;99.90;;;;;;4973854;28;20035;-85
2022/04/08 08:30:38;;;;;;;3.70;1.50;;;5.40;95.90;;;;;;4978393;28;20193;-86
2022/04/08 08:33:26;;;;;;;3.83;1.50;;;5.40;99.90;;;;;;4961689;28;20054;-85
2022/04/08 08:36:15;;;;;;;2.60;1.48;;;5.50;99.90;;;;;;4972012;28;20143;-85
2022/04/08 08:39:04;;;;;;;4.72;1.83;;;5.50;93.40;;;;;;4957874;28;20062;-86
2022/04/08 08:41:54;;;;;;;2.08;1.38;;;5.50;99.70;;;;;;4973388;28;20043;-84
2022/04/08 08:44:44;;;;;;;2.92;1.40;;;5.60;98.60;;;;;;4975035;28;20384;-87
2022/04/08 08:47:32;;;;;;;3.55;1.50;;;5.70;99.90;;;;;;4974500;28;20098;-86
2022/04/08 08:50:21;;;;;;;2.50;1.60;;;5.70;96.10;;;;;;4974371;28;20135;-85
2022/04/08 08:53:11;;;;;;;3.60;1.58;;;5.70;99.90;;;;;;4963468;28;20047;-88
2022/04/08 08:56:00;;;;;;;3.90;1.45;;;5.70;99.90;;;;;;4975260;28;20051;-86
2022/04/08 08:58:51;;;;;;;3.72;1.85;;;5.70;99.90;;;;;;4959218;28;20396;-86
2022/04/08 09:01:38;;;;;;;2.15;1.20;;;5.70;99.90;;;;;;4963863;28;20125;-87
2022/04/08 09:04:27;;;;;;;3.58;1.40;;;5.80;99.90;;;;;;4993760;28;20065;-84
2022/04/08 09:07:25;;;;;;;5.72;1.80;;;5.90;99.90;;;;;;4984604;28;20039;-84
2022/04/08 09:10:12;;;;;;;8.48;1.90;;;5.90;99.90;;;;;;4993505;28;20050;-85
2022/04/08 09:13:02;;;;;;;3.25;1.38;;;5.90;99.90;;;;;;4968564;28;20042;-84
2022/04/08 09:15:56;;;;;;;3.83;1.30;;;6.00;99.90;;;;;;4976956;28;20053;-87
2022/04/08 09:18:51;;;;;;;4.93;1.60;;;6.10;86.80;;;;;;4974333;28;20046;-86
2022/04/08 09:21:52;;;;;;;6.00;1.70;;;6.20;99.90;;;;;;4961858;28;20503;-85
2022/04/08 09:24:40;;;;;;;9.10;2.00;;;6.50;99.90;;;;;;4973245;28;20046;-84
2022/04/08 09:27:34;;;;;;;2.75;2.03;;;6.50;99.50;;;;;;4975724;28;20058;-85
2022/04/08 09:30:27;;;;;;;1.23;1.00;;;6.40;87.60;;;;;;4980680;28;20050;-85
2022/04/08 09:33:19;;;;;;;3.25;1.55;;;6.20;85.00;;;;;;4970144;28;20047;-83
2022/04/08 09:36:07;;;;;;;3.25;1.63;;;6.00;89.00;;;;;;4980412;28;20028;-80
2022/04/08 09:38:55;;;;;;;2.78;1.55;;;5.80;94.50;;;;;;4983839;28;20111;-82
2022/04/08 09:41:46;;;;;;;2.30;1.30;;;5.90;99.90;;;;;;4992648;28;20153;-85
2022/04/08 09:44:37;;;;;;;4.10;1.40;;;5.90;99.90;;;;;;4983087;28;20055;-85
2022/04/08 09:47:39;;;;;;;3.42;1.67;;;6.00;99.90;;;;;;4975841;28;21516;-87
2022/04/08 09:50:31;;;;;;;4.47;1.40;;;6.10;99.90;;;;;;4970835;28;20050;-86
2022/04/08 09:54:05;;;;;;;1.67;1.30;;;6.10;99.90;;;;;;4946958;28;20206;-88
2022/04/08 09:56:59;;;;;;;4.07;1.33;;;6.00;82.00;;;;;;4969146;28;20203;-87
2022/04/08 10:00:02;;;;;;;2.40;1.52;;;6.20;99.90;;;;;;4972694;28;20051;-85
2022/04/08 10:02:53;;;;;;;3.88;1.15;;;6.30;99.90;;;;;;4958402;28;20145;-85
2022/04/08 10:05:46;;;;;;;3.20;1.17;;;6.30;99.90;;;;;;4969125;28;20372;-87
2022/04/08 10:08:36;;;;;;;1.15;1.05;;;6.40;99.90;;;;;;4969196;28;20376;-86
2022/04/08 10:11:58;;;;;;;1.98;1.20;;;6.40;99.90;;;;;;4968249;28;20066;-81
2022/04/08 10:14:52;;;;;;;3.05;1.33;;;6.40;99.90;;;;;;4970190;28;20062;-83
2022/04/08 10:17:42;;;;;;;2.80;1.30;;;6.40;99.90;;;;;;4973312;28;20046;-82
2022/04/08 10:20:30;;;;;;;1.48;1.38;;;6.60;99.90;;;;;;4982401;28;20121;-82
2022/04/08 10:23:22;;;;;;;2.53;1.35;;;6.60;99.90;;;;;;4983066;28;20050;-83
2022/04/08 10:26:21;;;;;;;2.58;1.45;;;6.50;99.90;;;;;;4977432;28;20054;-84
2022/04/08 10:29:13;;;;;;;3.63;1.70;;;6.40;99.90;;;;;;4965086;28;20042;-85
2022/04/08 10:32:05;;;;;;;1.83;1.67;;;6.40;99.90;;;;;;4963308;28;20057;-86
2022/04/08 10:34:53;;;;;;;3.45;1.70;;;6.50;99.90;;;;;;4954503;28;20171;-87
2022/04/08 10:37:41;;;;;;;4.60;2.05;;;6.60;99.90;;;;;;4968700;28;20051;-85
2022/04/08 10:40:33;;;;;;;6.45;2.03;;;6.70;99.90;;;;;;4972054;28;20043;-87
2022/04/08 10:43:21;;;;;;;2.28;2.08;;;6.70;99.90;;;;;;4964835;28;20057;-89
2022/04/08 10:46:08;;;;;;;2.47;2.05;;;6.60;99.90;;;;;;4965663;28;20042;-87
2022/04/08 10:48:58;;;;;;;4.50;2.40;;;6.60;99.90;;;;;;4972270;28;20054;-88
2022/04/08 10:51:48;;;;;;;2.05;1.85;;;6.60;99.90;;;;;;4959743;28;20453;-87
2022/04/08 10:54:36;;;;;;;4.72;2.85;;;6.60;99.90;;;;;;4963538;28;20069;-87
2022/04/08 10:57:38;;;;;;;3.97;2.40;;;6.50;99.90;;;;;;4970865;28;20479;-87
2022/04/08 11:00:29;;;;;;;5.07;2.63;;;6.60;99.90;;;;;;4972813;28;20479;-87
2022/04/08 11:03:16;;;;;;;6.10;3.15;;;6.40;99.90;;;;;;4974057;28;20047;-87
2022/04/08 11:06:04;;;;;;;4.72;2.67;;;6.40;99.90;;;;;;4957174;28;20062;-87
2022/04/08 11:08:54;;;;;;;5.20;3.20;;;6.40;99.90;;;;;;4957046;28;20055;-87
2022/04/08 11:11:52;;;;;;;8.27;4.25;;;6.30;99.90;;;;;;4973933;28;20046;-87
2022/04/08 11:14:41;;;;;;;9.02;3.92;;;6.20;99.90;;;;;;4953963;28;20057;-88
2022/04/08 11:17:37;;;;;;;8.43;3.58;;;6.20;99.90;;;;;;4971613;28;20059;-87
2022/04/08 11:20:25;;;;;;;4.55;3.50;;;6.30;99.90;;;;;;4968082;28;20070;-84
2022/04/08 11:23:13;;;;;;;7.68;4.03;;;6.20;99.90;;;;;;4957593;28;20042;-88
2022/04/08 11:26:01;;;;;;;7.18;4.13;;;6.30;99.90;;;;;;4961099;28;20066;-87
2022/04/08 11:28:50;;;;;;;5.85;3.20;;;6.40;99.90;;;;;;4971184;28;20064;-86
2022/04/08 11:32:08;;;;;;;3.72;3.28;;;6.40;99.90;;;;;;4971663;28;20469;-84
2022/04/08 11:34:57;;;;;;;5.70;3.90;;;6.40;99.90;;;;;;4970737;28;20424;-85
2022/04/08 11:37:50;;;;;;;7.38;4.20;;;6.50;99.90;;;;;;4988281;28;20062;-89
2022/04/08 11:40:37;;;;;;;9.10;4.50;;;6.50;99.90;;;;;;4960057;28;20498;-89
2022/04/08 11:43:28;;;;;;;9.13;4.75;;;6.50;99.90;;;;;;4973281;28;20065;-87
2022/04/08 11:46:17;;;;;;;5.97;3.60;;;6.60;99.90;;;;;;4978028;28;20054;-86
2022/04/08 11:49:12;;;;;;;4.20;3.23;;;6.50;99.90;;;;;;4972156;28;20054;-87
2022/04/08 11:52:05;;;;;;;5.30;3.90;;;6.50;99.90;;;;;;4972928;28;20101;-87
2022/04/08 11:54:52;;;;;;;5.60;3.80;;;6.50;99.90;;;;;;4972607;28;20046;-87
2022/04/08 11:58:00;;;;;;;6.18;4.90;;;6.50;99.90;;;;;;4972116;28;20059;-86
2022/04/08 12:00:52;;;;;;;8.32;4.53;;;6.50;99.90;;;;;;4972066;28;20464;-87
2022/04/08 12:03:41;;;;;;;6.63;5.15;;;6.50;99.90;;;;;;4970784;28;20051;-86
2022/04/08 12:06:41;;;;;;;6.55;5.20;;;6.50;99.90;;;;;;4962303;28;20181;-87
2022/04/08 12:09:29;;;;;;;8.05;5.63;;;6.50;99.90;;;;;;4970839;28;20129;-86
2022/04/08 12:12:28;;;;;;;8.23;5.80;;;6.50;99.90;;;;;;4970131;28;20049;-88
2022/04/08 12:15:21;;;;;;;13.90;6.35;;;6.40;99.90;;;;;;4971087;28;20125;-84
2022/04/08 12:18:08;;;;;;;14.10;5.97;;;6.40;99.90;;;;;;4960437;28;20046;-89
2022/04/08 12:21:04;;;;;;;7.85;5.90;;;6.30;99.90;;;;;;4960069;28;20055;-86
2022/04/08 12:23:54;;;;;;;18.20;9.27;;;6.30;99.90;;;;;;4973337;28;20487;-88
2022/04/08 12:26:43;;;;;;;10.68;7.30;;;6.40;99.90;;;;;;4974021;28;20545;-86
2022/04/08 12:29:31;;;;;;;9.98;7.38;;;6.40;99.90;;;;;;4968828;28;20054;-86
2022/04/08 12:32:18;;;;;;;9.65;6.85;;;6.40;99.90;;;;;;4978880;28;20046;-87
2022/04/08 12:35:12;;;;;;;12.68;7.30;;;6.50;99.90;;;;;;4974980;28;20151;-89
2022/04/08 12:38:04;;;;;;;9.45;5.95;;;6.50;99.90;;;;;;4971702;28;20106;-84
2022/04/08 12:40:53;;;;;;;7.13;4.43;;;6.40;99.90;;;;;;4964762;28;20062;-85
2022/04/08 12:43:48;;;;;;;23.70;7.22;;;6.40;99.90;;;;;;4982698;28;20294;-84
2022/04/08 12:46:38;;;;;;;6.22;5.05;;;6.40;99.90;;;;;;4969455;28;20066;-85
2022/04/08 12:49:26;;;;;;;6.72;4.88;;;6.40;99.90;;;;;;4969693;28;20098;-85
2022/04/08 12:52:16;;;;;;;5.70;4.47;;;6.50;99.90;;;;;;4987393;28;20131;-85
2022/04/08 12:55:07;;;;;;;8.07;5.88;;;6.60;99.90;;;;;;4971883;28;20178;-87
2022/04/08 12:57:56;;;;;;;7.68;6.32;;;6.50;99.90;;;;;;4976582;28;20082;-87
2022/04/08 13:00:45;;;;;;;10.10;5.43;;;6.40;99.90;;;;;;4976149;28;20117;-86
2022/04/08 13:03:33;;;;;;;5.47;4.97;;;6.40;99.90;;;;;;4975981;28;20081;-87
2022/04/08 13:06:21;;;;;;;8.98;5.00;;;6.30;99.90;;;;;;4962901;28;20471;-87
2022/04/08 13:09:12;;;;;;;6.93;5.18;;;6.20;99.90;;;;;;4975542;28;20043;-88
2022/04/08 13:12:00;;;;;;;7.93;5.70;;;6.20;99.90;;;;;;4992254;28;20056;-89
2022/04/08 13:14:49;;;;;;;7.10;6.13;;;6.30;99.90;;;;;;4976576;28;20093;-88
2022/04/08 13:17:41;;;;;;;15.02;7.60;;;6.30;99.90;;;;;;4969304;28;20047;-89
2022/04/08 13:20:29;;;;;;;9.05;7.55;;;6.10;99.90;;;;;;4965001;28;20126;-89
2022/04/08 13:23:17;;;;;;;8.15;6.90;;;6.10;99.90;;;;;;4981037;28;20047;-87
2022/04/08 13:26:07;;;;;;;13.90;6.90;;;6.10;99.90;;;;;;4976866;28;20047;-87
2022/04/08 13:28:56;;;;;;;13.93;6.45;;;6.00;99.90;;;;;;4958800;28;20147;-88
2022/04/08 13:31:46;;;;;;;17.17;6.65;;;5.90;99.90;;;;;;4978397;28;20050;-88
2022/04/08 13:34:34;;;;;;;9.13;7.32;;;5.90;99.90;;;;;;4977618;28;20115;-88
2022/04/08 13:37:24;;;;;;;10.85;7.25;;;5.90;99.90;;;;;;4976734;28;20069;-86
2022/04/08 13:40:14;;;;;;;17.25;6.70;;;5.90;99.90;;;;;;4966736;28;20054;-87
2022/04/08 13:43:04;;;;;;;12.98;7.50;;;5.90;99.90;;;;;;4954351;28;20061;-85
2022/04/08 13:45:52;;;;;;;11.80;8.25;;;5.90;99.90;;;;;;4973330;28;20104;-87
2022/04/08 13:48:39;;;;;;;11.43;8.57;;;6.00;99.90;;;;;;4972583;28;20066;-88
2022/04/08 13:51:28;;;;;;;12.98;8.38;;;6.00;99.90;;;;;;4973891;28;20153;-87
2022/04/08 13:54:24;;;;;;;12.80;8.57;;;6.10;99.90;;;;;;4957885;29;20457;-87
2022/04/08 13:57:12;;;;;;;12.32;8.50;;;6.10;99.90;;;;;;4977410;28;20058;-88
2022/04/08 13:59:59;;;;;;;14.77;9.00;;;6.20;99.90;;;;;;4975378;28;20577;-87
2022/04/08 14:02:52;;;;;;;13.77;9.20;;;6.30;99.90;;;;;;4976216;28;20072;-87
2022/04/08 14:05:42;;;;;;;7.63;5.97;;;6.40;99.90;;;;;;4974104;28;20113;-87
2022/04/08 14:08:30;;;;;;;6.43;5.07;;;6.60;99.90;;;;;;4987656;28;20038;-85
2022/04/08 14:11:18;;;;;;;4.20;3.33;;;6.80;99.90;;;;;;4979031;28;20047;-88
2022/04/08 14:14:07;;;;;;;3.88;2.40;;;7.40;99.90;;;;;;4978458;28;20078;-87
2022/04/08 14:16:54;;;;;;;2.22;2.03;;;8.10;99.90;;;;;;4983383;28;20031;-88
2022/04/08 14:19:43;;;;;;;3.42;1.60;;;8.50;99.90;;;;;;4968916;28;20118;-86
2022/04/08 14:22:31;;;;;;;1.88;1.20;;;8.60;99.90;;;;;;4988619;28;20407;-86
2022/04/08 14:25:21;;;;;;;1.20;1.00;;;8.90;99.90;;;;;;4978583;28;20031;-82
2022/04/08 14:28:19;;;;;;;3.67;1.50;;;9.10;99.90;;;;;;4977921;28;20130;-83
2022/04/08 14:31:09;;;;;;;6.00;1.45;;;9.10;99.90;;;;;;4976834;28;20096;-87
2022/04/08 14:34:02;;;;;;;4.85;1.33;;;9.20;99.90;;;;;;4975678;28;20036;-82
2022/04/08 14:36:50;;;;;;;4.95;1.15;;;9.30;99.90;;;;;;4993847;28;20031;-84
2022/04/08 14:39:40;;;;;;;6.82;1.92;;;9.20;99.90;;;;;;4984834;28;20038;-84
2022/04/08 14:42:28;;;;;;;4.50;1.70;;;9.20;99.90;;;;;;4996853;28;20049;-88
2022/04/08 14:45:21;;;;;;;3.97;1.77;;;9.20;99.90;;;;;;4983038;28;20047;-85
2022/04/08 14:48:09;;;;;;;4.15;1.38;;;9.30;99.90;;;;;;4995319;28;20095;-87
2022/04/08 14:50:57;;;;;;;3.22;1.60;;;9.30;99.90;;;;;;4989929;28;20051;-86
2022/04/08 14:53:46;;;;;;;5.45;1.55;;;9.30;99.90;;;;;;4986748;28;20066;-86
2022/04/08 14:56:35;;;;;;;1.80;1.45;;;9.20;99.90;;;;;;4970650;28;20122;-86
2022/04/08 14:59:24;;;;;;;2.92;1.30;;;9.20;99.90;;;;;;4983491;28;20066;-87
2022/04/08 15:02:12;;;;;;;3.17;1.50;;;9.30;99.90;;;;;;4980088;28;20047;-88
2022/04/08 15:05:03;;;;;;;1.83;1.52;;;9.30;99.90;;;;;;4962770;28;20050;-88
2022/04/08 15:07:55;;;;;;;2.65;1.33;;;9.40;99.90;;;;;;4971095;28;20570;-86
2022/04/08 15:10:48;;;;;;;2.08;1.17;;;9.70;99.90;;;;;;4983679;28;20054;-88
2022/04/08 15:13:36;;;;;;;1.85;1.75;;;9.90;99.90;;;;;;4989550;28;20070;-88
2022/04/08 15:16:27;;;;;;;1.65;1.00;;;10.10;99.90;;;;;;4999358;28;20196;-85
2022/04/08 15:19:16;;;;;;;2.35;1.10;;;10.30;92.50;;;;;;4964665;28;20043;-86
2022/04/08 15:22:10;;;;;;;1.83;1.02;;;10.20;99.90;;;;;;4963969;28;20065;-86
2022/04/08 15:25:21;;;;;;;1.45;1.30;;;10.20;99.90;;;;;;4983131;28;20334;-87
2022/04/08 15:28:12;;;;;;;1.42;1.30;;;10.10;99.90;;;;;;4988242;28;20054;-86
2022/04/08 15:31:04;;;;;;;1.88;1.10;;;10.20;99.90;;;;;;4982639;28;20122;-87
2022/04/08 15:33:59;;;;;;;1.00;0.98;;;10.60;99.90;;;;;;4988070;28;20050;-85